Time;durP1;ratioP1;P1;durP2;ratioP2;P2;SDS_P1;SDS_P2;PMS_P1;PMS_P2;Temp;Humidity;BMP_temperature;BMP_pressure;BME280_temperature;BME280_humidity;BME280_pressure;Samples;Min_cycle;Max_cycle;Signal;HPM_P1;HPM_P2
2021/06/30 00:02:06;;;;;;;;;9.25;7.25;;;;;18.60;68.33;101281.16;4968754;28;45472;-86
2021/06/30 00:04:31;;;;;;;;;7.25;7.25;;;;;18.61;68.00;101276.69;4965314;28;45444;-87
2021/06/30 00:06:57;;;;;;;;;11.00;9.50;;;;;18.61;68.03;101280.22;4967953;28;45412;-87
2021/06/30 00:09:22;;;;;;;;;11.25;9.25;;;;;18.63;68.76;101273.00;4980958;28;45177;-87
2021/06/30 00:11:48;;;;;;;;;7.50;7.25;;;;;18.57;68.09;101278.66;4960865;28;45266;-87
2021/06/30 00:14:14;;;;;;;;;17.75;15.75;;;;;18.55;68.55;101277.91;4970130;28;45213;-87
2021/06/30 00:16:40;;;;;;;;;11.50;11.50;;;;;18.55;68.39;101277.91;4965724;28;46004;-88
2021/06/30 00:19:08;;;;;;;;;10.75;10.25;;;;;18.53;68.65;101275.34;4979482;28;47753;-90
2021/06/30 00:21:33;;;;;;;;;8.50;8.00;;;;;18.54;68.40;101278.88;4963161;28;45562;-90
2021/06/30 00:23:59;;;;;;;;;11.75;10.00;;;;;18.52;68.51;101284.25;4972598;28;45565;-90
2021/06/30 00:26:24;;;;;;;;;10.00;8.75;;;;;18.42;68.69;101270.63;4981618;28;46748;-91
2021/06/30 00:28:49;;;;;;;;;8.50;8.50;;;;;18.40;68.35;101266.34;4973660;28;47918;-91
2021/06/30 00:31:16;;;;;;;;;7.75;7.75;;;;;18.41;68.68;101268.06;4979645;28;45448;-91
2021/06/30 00:33:42;;;;;;;;;10.75;8.75;;;;;18.43;68.83;101276.81;4960162;28;45422;-86
2021/06/30 00:36:08;;;;;;;;;12.00;9.25;;;;;18.38;68.67;101268.25;4972678;28;45476;-88
2021/06/30 00:38:33;;;;;;;;;7.75;7.00;;;;;18.36;68.71;101272.78;4974920;28;46179;-88
2021/06/30 00:40:59;;;;;;;;;8.00;8.00;;;;;18.31;68.61;101278.38;4959643;28;45464;-87
2021/06/30 00:43:24;;;;;;;;;10.25;7.25;;;;;18.32;69.11;101267.66;4966193;28;45409;-87
2021/06/30 00:45:49;;;;;;;;;9.00;7.00;;;;;18.32;69.43;101266.81;4966072;28;45901;-86
2021/06/30 00:48:15;;;;;;;;;6.75;6.75;;;;;18.32;69.57;101274.78;4964403;28;45405;-87
2021/06/30 00:50:40;;;;;;;;;10.25;8.00;;;;;18.24;69.10;101272.56;4961054;28;45222;-87
2021/06/30 00:53:06;;;;;;;;;8.50;7.25;;;;;18.21;69.69;101276.25;4960916;28;45404;-87
2021/06/30 00:55:32;;;;;;;;;6.00;4.75;;;;;18.13;69.22;101269.63;4960905;28;45219;-87
2021/06/30 00:57:58;;;;;;;;;10.50;6.25;;;;;18.06;69.62;101266.44;4973667;28;46347;-87
2021/06/30 01:00:24;;;;;;;;;11.50;7.00;;;;;18.02;70.00;101276.41;4964183;28;45602;-90
2021/06/30 01:02:50;;;;;;;;;5.25;5.00;;;;;17.93;69.71;101264.47;4982583;28;46749;-90
2021/06/30 01:05:16;;;;;;;;;6.25;6.25;;;;;17.89;70.28;101276.25;4974948;28;45983;-76
2021/06/30 01:07:43;;;;;;;;;6.25;5.50;;;;;17.84;70.61;101272.97;4971479;28;46183;-76
2021/06/30 01:10:09;;;;;;;;;6.00;5.00;;;;;17.79;70.22;101275.03;4976529;28;45424;-77
2021/06/30 01:12:35;;;;;;;;;6.25;4.50;;;;;17.70;70.97;101271.94;4975437;28;45276;-84
2021/06/30 01:15:09;;;;;;;;;6.50;5.75;;;;;17.59;70.72;101269.88;4970720;28;45260;-83
2021/06/30 01:17:35;;;;;;;;;5.00;4.00;;;;;17.48;71.85;101277.56;4969312;28;46645;-83
2021/06/30 01:20:00;;;;;;;;;6.00;6.00;;;;;17.40;71.09;101277.97;4977584;28;45226;-83
2021/06/30 01:22:26;;;;;;;;;4.25;4.25;;;;;17.36;72.07;101271.97;4965926;28;45266;-83
2021/06/30 01:24:53;;;;;;;;;5.50;5.25;;;;;17.38;71.78;101277.22;4992303;28;46453;-88
2021/06/30 01:27:20;;;;;;;;;9.50;8.50;;;;;17.37;72.21;101280.78;4967915;28;45456;-88
2021/06/30 01:29:46;;;;;;;;;5.75;4.00;;;;;17.31;72.56;101272.22;4968380;28;45625;-87
2021/06/30 01:32:12;;;;;;;;;5.50;5.00;;;;;17.27;72.09;101269.81;4973689;28;45399;-88
2021/06/30 01:34:38;;;;;;;;;4.50;4.25;;;;;17.26;72.80;101273.41;4960612;28;45437;-89
2021/06/30 01:37:03;;;;;;;;;6.00;4.25;;;;;17.30;72.33;101278.47;4971443;28;45438;-89
2021/06/30 01:39:29;;;;;;;;;4.50;4.50;;;;;17.29;72.26;101273.22;4975553;28;45230;-89
2021/06/30 01:41:55;;;;;;;;;7.00;5.00;;;;;17.21;72.54;101269.19;4979928;28;45431;-89
2021/06/30 01:44:20;;;;;;;;;6.00;6.00;;;;;17.23;73.13;101276.22;4971712;28;45266;-94
2021/06/30 01:46:47;;;;;;;;;5.75;5.75;;;;;17.20;72.72;101271.94;4986767;28;45342;-93
2021/06/30 01:49:13;;;;;;;;;5.50;5.50;;;;;17.19;72.96;101272.84;4984968;28;45915;-94
2021/06/30 01:51:38;;;;;;;;;6.00;6.00;;;;;17.17;72.64;101264.13;4986553;28;45405;-96
2021/06/30 01:54:09;;;;;;;;;4.25;4.25;;;;;17.21;73.53;101273.66;4992427;28;47340;-94
2021/06/30 01:56:35;;;;;;;;;6.00;5.00;;;;;17.16;73.53;101278.34;4970520;28;48368;-94
2021/06/30 01:59:14;;;;;;;;;7.50;4.75;;;;;17.08;73.63;101274.28;4985737;28;45258;-95
2021/06/30 02:01:41;;;;;;;;;4.00;4.00;;;;;17.05;73.61;101277.06;4990519;28;45407;-94
2021/06/30 02:04:08;;;;;;;;;5.00;5.00;;;;;17.02;74.14;101281.69;4982094;28;46027;-95
2021/06/30 02:06:40;;;;;;;;;4.25;3.50;;;;;17.03;73.85;101281.63;4988960;28;48319;-94
2021/06/30 02:09:07;;;;;;;;;3.25;3.25;;;;;17.01;74.29;101280.84;4975907;28;45548;-94
2021/06/30 02:11:33;;;;;;;;;7.00;4.25;;;;;16.99;74.17;101285.34;4981356;28;45364;-94
2021/06/30 02:13:59;;;;;;;;;5.25;4.50;;;;;17.02;74.81;101289.63;4977995;28;46021;-95
2021/06/30 02:16:24;;;;;;;;;7.00;5.00;;;;;16.98;74.55;101273.03;4979021;28;48201;-93
2021/06/30 02:18:49;;;;;;;;;4.00;4.00;;;;;16.99;74.59;101278.25;4992089;28;45256;-94
2021/06/30 02:21:15;;;;;;;;;6.00;4.75;;;;;17.03;74.15;101280.75;4980167;28;45286;-87
2021/06/30 02:23:41;;;;;;;;;7.00;6.00;;;;;17.01;74.53;101282.63;4963281;28;45535;-87
2021/06/30 02:26:07;;;;;;;;;8.75;5.00;;;;;17.04;74.67;101291.28;4980924;28;46358;-86
2021/06/30 02:28:32;;;;;;;;;6.00;5.00;;;;;16.98;73.99;101286.31;4994290;28;45309;-86
2021/06/30 02:30:59;;;;;;;;;4.25;4.25;;;;;16.95;75.00;101282.00;4965416;28;45826;-81
2021/06/30 02:33:24;;;;;;;;;6.75;6.00;;;;;16.93;74.80;101283.03;4985653;28;45472;-81
2021/06/30 02:35:50;;;;;;;;;8.25;5.75;;;;;16.93;75.00;101288.34;4981069;28;45415;-81
2021/06/30 02:38:16;;;;;;;;;8.00;7.00;;;;;16.88;74.90;101272.63;4979994;28;45702;-81
2021/06/30 02:40:41;;;;;;;;;10.25;6.00;;;;;16.88;74.75;101291.22;4979305;28;45464;-84
2021/06/30 02:43:07;;;;;;;;;8.50;8.50;;;;;16.82;75.11;101288.88;4971395;28;47124;-84
2021/06/30 02:45:32;;;;;;;;;11.00;8.25;;;;;16.73;74.92;101287.56;4964478;28;46291;-84
2021/06/30 02:47:58;;;;;;;;;7.50;5.75;;;;;16.61;75.73;101286.38;4973194;28;45231;-83
2021/06/30 02:50:24;;;;;;;;;8.25;6.50;;;;;16.56;75.86;101299.00;4962819;28;45222;-81
2021/06/30 02:52:50;;;;;;;;;6.75;5.75;;;;;16.51;76.01;101293.94;4962866;28;45563;-86
2021/06/30 02:55:17;;;;;;;;;8.25;5.50;;;;;16.49;75.98;101288.72;4960820;28;47342;-86
2021/06/30 02:57:44;;;;;;;;;5.75;5.75;;;;;16.52;75.99;101296.50;4962537;28;45547;-86
2021/06/30 03:00:16;;;;;;;;;7.50;7.50;;;;;16.48;76.41;101286.97;4977557;28;45383;-85
2021/06/30 03:02:42;;;;;;;;;7.00;6.75;;;;;16.51;76.11;101294.78;4964740;28;45471;-85
2021/06/30 03:05:08;;;;;;;;;12.25;10.00;;;;;16.52;75.66;101299.16;4976883;28;45425;-90
2021/06/30 03:07:34;;;;;;;;;9.75;9.50;;;;;16.49;76.03;101295.81;4964364;28;45601;-90
2021/06/30 03:10:00;;;;;;;;;10.00;10.00;;;;;16.46;75.30;101293.31;4962581;28;45672;-91
2021/06/30 03:12:25;;;;;;;;;10.75;8.00;;;;;16.42;74.98;101296.09;4970771;28;46242;-90
2021/06/30 03:14:51;;;;;;;;;10.00;7.75;;;;;16.42;74.90;101289.94;4977736;28;47486;-89
2021/06/30 03:17:16;;;;;;;;;6.75;6.25;;;;;16.44;75.07;101311.09;4962615;28;45404;-91
2021/06/30 03:19:42;;;;;;;;;9.50;9.50;;;;;16.43;75.32;101310.22;4962533;28;45261;-85
2021/06/30 03:22:07;;;;;;;;;16.00;9.00;;;;;16.44;74.90;101297.81;4981081;28;45333;-88
2021/06/30 03:24:33;;;;;;;;;7.00;6.75;;;;;16.47;74.13;101310.94;4981440;28;46264;-88
2021/06/30 03:26:58;;;;;;;;;10.75;9.50;;;;;16.46;75.05;101306.56;4980228;28;45229;-88
2021/06/30 03:29:23;;;;;;;;;10.50;9.00;;;;;16.45;74.40;101302.19;4969790;28;45233;-78
2021/06/30 03:31:49;;;;;;;;;10.25;9.00;;;;;16.46;74.46;101307.44;4973125;28;45388;-80
2021/06/30 03:34:14;;;;;;;;;11.50;9.25;;;;;16.44;74.63;101301.34;4961908;28;45279;-80
2021/06/30 03:36:39;;;;;;;;;12.50;10.75;;;;;16.51;74.55;101304.53;4961931;28;45282;-79
2021/06/30 03:39:05;;;;;;;;;10.25;9.50;;;;;16.55;74.36;101306.09;4975493;28;45517;-92
2021/06/30 03:41:30;;;;;;;;;10.50;8.00;;;;;16.55;74.10;101300.78;4967400;28;47238;-92
2021/06/30 03:43:56;;;;;;;;;9.25;9.25;;;;;16.52;74.27;101312.41;4989812;28;47192;-90
2021/06/30 03:46:21;;;;;;;;;12.75;10.00;;;;;16.48;74.07;101317.97;4964896;28;45709;-93
2021/06/30 03:48:46;;;;;;;;;16.50;10.00;;;;;16.45;73.75;101312.78;4973825;28;45356;-92
2021/06/30 03:51:12;;;;;;;;;10.50;9.50;;;;;16.42;74.37;101319.97;4961909;28;45219;-92
2021/06/30 03:53:37;;;;;;;;;13.50;11.00;;;;;16.42;74.18;101322.63;4983698;28;48084;-89
2021/06/30 03:56:03;;;;;;;;;10.25;9.00;;;;;16.40;74.16;101316.53;4980763;28;45382;-90
2021/06/30 03:58:30;;;;;;;;;12.50;11.25;;;;;16.35;74.25;101310.59;4965607;28;45357;-88
2021/06/30 04:00:55;;;;;;;;;13.75;9.00;;;;;16.41;74.00;101318.28;4970318;28;46052;-92
2021/06/30 04:03:21;;;;;;;;;12.50;10.75;;;;;16.43;74.45;101318.19;4963776;28;47952;-93
2021/06/30 04:05:46;;;;;;;;;10.25;10.25;;;;;16.44;74.17;101319.91;4979930;28;45368;-92
2021/06/30 04:08:12;;;;;;;;;11.50;10.75;;;;;16.43;74.17;101320.84;4979019;28;45620;-87
2021/06/30 04:10:38;;;;;;;;;13.25;12.25;;;;;16.41;73.97;101318.28;4979785;28;45348;-93
2021/06/30 04:13:04;;;;;;;;;11.00;10.25;;;;;16.41;73.71;101320.06;4967577;28;47574;-94
2021/06/30 04:15:30;;;;;;;;;14.50;8.50;;;;;16.38;74.02;101314.88;4982609;28;45300;-92
2021/06/30 04:17:58;;;;;;;;;15.00;12.50;;;;;16.35;74.30;101312.38;4969463;28;45174;-85
2021/06/30 04:20:23;;;;;;;;;16.75;12.75;;;;;16.30;74.09;101312.59;4979406;28;46191;-85
2021/06/30 04:22:48;;;;;;;;;19.25;16.25;;;;;16.30;74.18;101316.13;4979240;28;45590;-85
2021/06/30 04:25:14;;;;;;;;;17.50;13.25;;;;;16.28;73.98;101304.72;4961079;28;45420;-85
2021/06/30 04:27:39;;;;;;;;;16.25;11.25;;;;;16.32;74.31;101316.06;4967773;28;45333;-84
2021/06/30 04:30:10;;;;;;;;;12.25;11.75;;;;;16.36;74.03;101325.59;4961240;28;45326;-85
2021/06/30 04:32:36;;;;;;;;;16.25;11.50;;;;;16.31;74.07;101319.63;4974824;28;45289;-83
2021/06/30 04:35:04;;;;;;;;;15.75;10.00;;;;;16.35;73.98;101328.28;4980048;28;45643;-83
2021/06/30 04:37:29;;;;;;;;;12.00;11.00;;;;;16.34;73.88;101318.63;4967747;28;45397;-83
2021/06/30 04:39:54;;;;;;;;;11.75;11.25;;;;;16.33;73.83;101316.91;4967772;28;45345;-82
2021/06/30 04:42:20;;;;;;;;;14.00;12.25;;;;;16.39;73.98;101330.75;4964669;28;45397;-91
2021/06/30 04:44:45;;;;;;;;;12.00;11.50;;;;;16.40;73.58;101324.50;4981638;28;46124;-88
2021/06/30 04:47:11;;;;;;;;;11.50;11.25;;;;;16.37;73.83;101323.81;4969185;28;45415;-88
2021/06/30 04:49:37;;;;;;;;;11.50;11.00;;;;;16.35;73.81;101323.84;4995290;28;46467;-86
2021/06/30 04:52:02;;;;;;;;;11.00;10.25;;;;;16.35;73.71;101323.84;4963501;28;45297;-86
2021/06/30 04:54:28;;;;;;;;;16.25;12.25;;;;;16.42;73.98;101332.41;4965243;28;45212;-85
2021/06/30 04:56:53;;;;;;;;;11.25;9.00;;;;;16.38;73.98;101325.50;4979040;28;45438;-87
2021/06/30 04:59:19;;;;;;;;;11.75;11.75;;;;;16.39;73.99;101328.09;4979277;28;45239;-86
2021/06/30 05:01:44;;;;;;;;;12.50;9.75;;;;;16.44;74.20;101327.88;4963942;28;45460;-86
2021/06/30 05:04:10;;;;;;;;;9.75;9.25;;;;;16.44;74.10;101324.34;4969807;28;45203;-89
2021/06/30 05:06:36;;;;;;;;;9.50;9.50;;;;;16.45;74.06;101326.91;4979024;28;45289;-88
2021/06/30 05:09:03;;;;;;;;;10.50;9.25;;;;;16.46;74.01;101333.97;4978731;28;46448;-89
2021/06/30 05:11:29;;;;;;;;;10.25;9.00;;;;;16.46;73.88;101339.25;4982555;28;47506;-91
2021/06/30 05:13:55;;;;;;;;;9.00;6.50;;;;;16.47;74.18;101332.19;4970304;28;45379;-82
2021/06/30 05:16:22;;;;;;;;;10.25;9.00;;;;;16.49;74.05;101341.78;4971987;28;45438;-79
2021/06/30 05:18:48;;;;;;;;;8.75;6.25;;;;;16.45;73.95;101331.34;4964073;28;45222;-78
2021/06/30 05:21:13;;;;;;;;;10.00;8.75;;;;;16.49;73.95;101348.88;4964185;28;45357;-78
2021/06/30 05:23:38;;;;;;;;;10.00;8.75;;;;;16.47;73.92;101345.44;4970656;28;45222;-78
2021/06/30 05:26:04;;;;;;;;;7.75;7.00;;;;;16.45;74.36;101339.31;4970015;28;45975;-81
2021/06/30 05:28:29;;;;;;;;;8.25;6.50;;;;;16.49;74.15;101348.88;4965777;28;45464;-80
2021/06/30 05:30:55;;;;;;;;;6.25;5.00;;;;;16.42;73.63;101349.16;4981031;28;48148;-80
2021/06/30 05:33:20;;;;;;;;;8.25;5.75;;;;;16.47;73.93;101356.88;4970336;28;45379;-82
2021/06/30 05:35:45;;;;;;;;;9.25;8.00;;;;;16.41;73.73;101352.75;4981312;28;45285;-82
2021/06/30 05:38:11;;;;;;;;;11.00;8.25;;;;;16.45;73.87;101363.19;4972160;28;46072;-81
2021/06/30 05:40:36;;;;;;;;;8.75;8.75;;;;;16.39;74.10;101351.09;4970410;28;45248;-83
2021/06/30 05:43:02;;;;;;;;;7.25;6.50;;;;;16.46;74.08;101356.97;4966825;28;45271;-83
2021/06/30 05:45:27;;;;;;;;;8.75;7.50;;;;;16.43;74.17;101355.31;4963556;28;45289;-83
2021/06/30 05:47:52;;;;;;;;;7.00;7.00;;;;;16.46;73.97;101359.63;4966065;28;45439;-80
2021/06/30 05:50:20;;;;;;;;;5.75;4.75;;;;;16.42;73.93;101359.75;4968473;28;45476;-80
2021/06/30 05:52:45;;;;;;;;;10.50;7.75;;;;;16.38;74.03;101358.19;4966817;28;45412;-80
2021/06/30 05:55:11;;;;;;;;;6.50;6.00;;;;;16.38;73.99;101363.50;4973456;28;45643;-80
2021/06/30 05:57:37;;;;;;;;;7.00;7.00;;;;;16.37;73.94;101359.13;4973769;28;45503;-80
2021/06/30 06:00:09;;;;;;;;;7.75;7.00;;;;;16.37;73.74;101363.59;4974157;28;45377;-80
2021/06/30 06:02:34;;;;;;;;;5.50;4.50;;;;;16.35;74.37;101368.94;4966950;28;45780;-79
2021/06/30 06:05:00;;;;;;;;;6.00;6.00;;;;;16.30;73.71;101355.03;4967678;28;45533;-79
2021/06/30 06:07:25;;;;;;;;;5.00;5.00;;;;;16.31;73.81;101372.69;4997515;28;45311;-79
2021/06/30 06:09:51;;;;;;;;;10.00;8.25;;;;;16.30;74.10;101365.66;4968079;28;45450;-79
2021/06/30 06:12:16;;;;;;;;;8.00;6.00;;;;;16.34;73.89;101377.84;4967841;28;45537;-79
2021/06/30 06:14:42;;;;;;;;;5.00;5.00;;;;;16.24;73.62;101372.13;4970550;28;45400;-80
2021/06/30 06:17:08;;;;;;;;;5.50;5.00;;;;;16.20;73.91;101374.06;4962986;28;45287;-79
2021/06/30 06:19:34;;;;;;;;;5.00;4.00;;;;;16.13;74.25;101374.41;4969196;28;45443;-79
2021/06/30 06:21:59;;;;;;;;;8.25;6.00;;;;;16.11;74.42;101377.13;4975564;28;45287;-79
2021/06/30 06:24:25;;;;;;;;;4.00;4.00;;;;;16.10;74.89;101390.47;4971501;28;45532;-79
2021/06/30 06:26:52;;;;;;;;;7.25;6.00;;;;;16.01;74.31;101387.28;4966461;28;45348;-79
2021/06/30 06:29:17;;;;;;;;;5.50;5.50;;;;;15.98;75.24;101393.56;4964096;28;45517;-79
2021/06/30 06:31:45;;;;;;;;;6.75;5.75;;;;;15.93;75.71;101390.28;4974253;28;45972;-79
2021/06/30 06:34:11;;;;;;;;;5.25;5.25;;;;;15.91;75.63;101401.88;4975944;28;45530;-79
2021/06/30 06:36:36;;;;;;;;;8.50;6.25;;;;;15.81;76.09;101391.69;4981485;28;45519;-79
2021/06/30 06:39:04;;;;;;;;;7.25;7.00;;;;;15.84;75.98;101398.63;4978057;28;45417;-79
2021/06/30 06:41:31;;;;;;;;;7.75;6.50;;;;;15.85;75.90;101403.88;4980535;28;45579;-79
2021/06/30 06:43:58;;;;;;;;;9.75;8.75;;;;;15.81;76.18;101402.28;4971170;28;45233;-79
2021/06/30 06:46:23;;;;;;;;;10.75;8.50;;;;;15.81;76.34;101404.94;4964795;28;45570;-79
2021/06/30 06:48:49;;;;;;;;;9.50;7.00;;;;;15.81;76.28;101406.72;4972700;28;46358;-79
2021/06/30 06:51:14;;;;;;;;;8.00;7.25;;;;;15.81;76.32;101393.47;4981321;28;47184;-79
2021/06/30 06:53:39;;;;;;;;;5.50;5.50;;;;;15.85;76.20;101403.03;4968501;28;45385;-79
2021/06/30 06:56:09;;;;;;;;;9.25;8.25;;;;;15.89;76.26;101409.91;4962295;28;45425;-79
2021/06/30 06:58:35;;;;;;;;;10.75;6.00;;;;;15.83;76.54;101399.56;4974154;28;45290;-79
2021/06/30 07:01:00;;;;;;;;;9.25;7.00;;;;;15.90;76.69;101406.31;4962541;28;45230;-79
2021/06/30 07:03:25;;;;;;;;;9.25;7.00;;;;;15.92;76.35;101398.31;4974280;28;45166;-79
2021/06/30 07:05:51;;;;;;;;;10.00;8.25;;;;;15.98;76.39;101409.47;4973876;28;45693;-79
2021/06/30 07:08:16;;;;;;;;;7.50;7.00;;;;;16.03;76.00;101403.97;4978383;28;45540;-79
2021/06/30 07:10:42;;;;;;;;;8.25;7.75;;;;;16.01;76.18;101397.00;4978677;28;45456;-79
2021/06/30 07:13:07;;;;;;;;;9.25;8.00;;;;;16.01;75.94;101391.72;4967787;28;45274;-79
2021/06/30 07:15:32;;;;;;;;;6.00;6.00;;;;;16.10;75.76;101417.00;4981502;28;45926;-79
2021/06/30 07:17:58;;;;;;;;;9.25;7.25;;;;;16.07;75.52;101412.69;4976443;28;46238;-80
2021/06/30 07:20:23;;;;;;;;;10.00;7.75;;;;;16.05;75.69;101404.78;4964860;28;45474;-79
2021/06/30 07:22:49;;;;;;;;;8.25;7.75;;;;;16.11;75.80;101414.25;4964830;28;45400;-79
2021/06/30 07:25:16;;;;;;;;;9.50;7.50;;;;;16.14;75.44;101411.47;4960785;28;45493;-79
2021/06/30 07:27:41;;;;;;;;;6.50;6.50;;;;;16.11;75.75;101408.94;4960121;28;45456;-80
2021/06/30 07:30:07;;;;;;;;;10.50;8.25;;;;;16.14;75.87;101407.97;4961197;28;45490;-79
2021/06/30 07:32:33;;;;;;;;;10.25;8.25;;;;;16.16;75.53;101416.69;4968310;28;45349;-79
2021/06/30 07:34:58;;;;;;;;;8.25;7.75;;;;;16.18;75.70;101414.81;4974180;28;45270;-79
2021/06/30 07:37:24;;;;;;;;;7.25;7.25;;;;;16.23;75.61;101420.78;4978426;28;45287;-79
2021/06/30 07:39:49;;;;;;;;;8.75;7.25;;;;;16.23;75.13;101422.56;4960212;28;45279;-79
2021/06/30 07:42:14;;;;;;;;;8.00;6.75;;;;;16.23;75.07;101425.22;4971257;28;45289;-79
2021/06/30 07:44:40;;;;;;;;;8.50;7.50;;;;;16.24;75.92;101425.16;4970194;28;46321;-79
2021/06/30 07:47:06;;;;;;;;;8.50;6.25;;;;;16.33;75.13;101431.81;4975125;28;45410;-79
2021/06/30 07:49:32;;;;;;;;;8.25;8.25;;;;;16.34;75.17;101427.38;4966049;28;45314;-79
2021/06/30 07:51:57;;;;;;;;;7.75;6.25;;;;;16.38;74.77;101428.97;4972575;28;45135;-79
2021/06/30 07:54:23;;;;;;;;;9.50;8.50;;;;;16.41;74.76;101436.78;4961736;28;45250;-78
2021/06/30 07:56:48;;;;;;;;;7.25;7.25;;;;;16.40;74.97;101435.06;4961333;28;46551;-78
2021/06/30 07:59:13;;;;;;;;;8.50;8.25;;;;;16.35;75.08;101432.63;4973860;28;45693;-79
2021/06/30 08:01:40;;;;;;;;;11.50;9.25;;;;;16.42;75.12;101438.53;4981095;28;45402;-79
2021/06/30 08:04:06;;;;;;;;;7.00;6.25;;;;;16.43;75.10;101434.91;4969728;28;45542;-79
2021/06/30 08:06:33;;;;;;;;;9.00;8.25;;;;;16.49;75.37;101429.34;4968041;28;45556;-78
2021/06/30 08:08:59;;;;;;;;;9.00;8.75;;;;;16.55;74.95;101433.47;4972059;28;45725;-78
2021/06/30 08:11:25;;;;;;;;;10.50;8.25;;;;;16.52;74.81;101423.00;4980592;28;45275;-78
2021/06/30 08:13:53;;;;;;;;;8.75;8.25;;;;;16.57;74.43;101436.91;4980873;28;45284;-78
2021/06/30 08:16:20;;;;;;;;;10.50;9.00;;;;;16.55;74.50;101428.16;4980623;28;47565;-78
2021/06/30 08:18:45;;;;;;;;;10.50;7.00;;;;;16.56;74.98;101427.25;4964755;28;45395;-77
2021/06/30 08:21:11;;;;;;;;;9.75;8.50;;;;;16.67;74.95;101423.22;4966529;28;45498;-77
2021/06/30 08:23:37;;;;;;;;;6.75;5.25;;;;;16.76;75.09;101430.75;4968743;28;45448;-77
2021/06/30 08:26:02;;;;;;;;;9.50;8.50;;;;;16.85;74.94;101424.97;4960978;28;46348;-77
2021/06/30 08:28:28;;;;;;;;;11.25;10.00;;;;;17.00;74.14;101433.13;4967582;28;45455;-78
2021/06/30 08:30:54;;;;;;;;;14.50;9.75;;;;;16.98;74.45;101424.38;4976544;28;45525;-77
2021/06/30 08:33:19;;;;;;;;;10.75;10.25;;;;;17.06;74.17;101430.16;4961523;28;45519;-77
2021/06/30 08:35:45;;;;;;;;;10.75;9.25;;;;;17.09;73.70;101437.97;4975304;28;45531;-78
2021/06/30 08:38:12;;;;;;;;;12.50;11.00;;;;;17.10;73.45;101431.75;4973235;28;45198;-78
2021/06/30 08:40:38;;;;;;;;;10.50;9.50;;;;;17.14;73.49;101431.56;4976797;28;45332;-77
2021/06/30 08:43:07;;;;;;;;;10.00;10.00;;;;;17.19;73.52;101437.53;4980384;28;45368;-77
2021/06/30 08:45:35;;;;;;;;;10.75;9.00;;;;;17.23;73.27;101427.63;4978294;28;46413;-77
2021/06/30 08:48:01;;;;;;;;;10.25;8.25;;;;;17.28;73.47;101426.47;4965811;28;45275;-77
2021/06/30 08:50:27;;;;;;;;;8.50;8.00;;;;;17.32;72.73;101428.03;4966453;28;45415;-78
2021/06/30 08:52:54;;;;;;;;;7.00;6.25;;;;;17.41;72.34;101432.00;4961560;28;45207;-78
2021/06/30 08:55:21;;;;;;;;;8.75;6.25;;;;;17.47;72.56;101433.50;4971814;28;45551;-77
2021/06/30 08:57:47;;;;;;;;;10.50;10.50;;;;;17.52;72.83;101423.50;4970493;28;45277;-77
2021/06/30 09:00:14;;;;;;;;;10.25;9.25;;;;;17.63;71.82;101420.25;4972081;28;45540;-77
2021/06/30 09:02:43;;;;;;;;;10.00;9.50;;;;;17.73;72.69;101425.94;4990565;28;46150;-78
2021/06/30 09:07:50;;;;;;;;;9.75;9.75;;;;;17.93;72.40;101429.34;4975257;28;45485;-76
2021/06/30 09:10:35;;;;;;;;;9.75;9.75;;;;;17.98;71.96;101434.41;4968939;28;45147;-76
2021/06/30 09:13:01;;;;;;;;;11.00;10.50;;;;;18.00;71.06;101430.75;4972976;28;45280;-76
2021/06/30 09:15:33;;;;;;;;;8.00;6.75;;;;;17.98;69.92;101431.75;4979646;28;45534;-78
2021/06/30 09:18:24;;;;;;;;;12.25;11.25;;;;;17.93;70.79;101423.16;4975354;28;45480;-81
2021/06/30 09:20:49;;;;;;;;;15.50;10.75;;;;;17.96;70.43;101423.88;4979375;28;45376;-81
2021/06/30 09:23:15;;;;;;;;;10.00;8.00;;;;;18.02;69.77;101435.13;4970596;28;45522;-82
2021/06/30 09:25:43;;;;;;;;;10.00;7.25;;;;;18.02;70.25;101429.81;4957582;28;45505;-78
2021/06/30 09:28:15;;;;;;;;;13.00;10.00;;;;;18.13;69.53;101439.84;4970507;28;45742;-76
2021/06/30 19:19:39;;;;;;;;;13.50;13.25;;;;;18.65;61.48;101589.72;5531770;22;73411;-75
2021/06/30 19:22:05;;;;;;;;;15.00;14.00;;;;;18.65;61.81;101587.91;5003343;28;47651;-75
2021/06/30 19:24:30;;;;;;;;;15.25;13.75;;;;;18.65;61.46;101598.56;5003313;28;45730;-75
2021/06/30 19:26:56;;;;;;;;;14.25;12.50;;;;;18.65;61.81;101593.22;4990361;28;45352;-75
2021/06/30 19:29:22;;;;;;;;;18.25;14.75;;;;;18.61;61.35;101581.03;5002162;28;46259;-75
2021/06/30 19:31:54;;;;;;;;;12.75;11.75;;;;;18.64;61.53;101586.19;5000233;28;48288;-75
2021/06/30 19:34:20;;;;;;;;;15.25;15.00;;;;;18.61;61.35;101588.16;5009577;28;45578;-75
2021/06/30 19:36:46;;;;;;;;;15.00;12.00;;;;;18.59;61.72;101593.59;4992955;28;45268;-75
2021/06/30 19:39:12;;;;;;;;;18.50;15.50;;;;;18.59;62.00;101598.03;5018878;28;45601;-75
2021/06/30 19:41:37;;;;;;;;;24.50;19.00;;;;;18.52;61.30;101593.03;5018521;28;45460;-75
2021/06/30 19:44:03;;;;;;;;;20.75;15.25;;;;;18.56;61.67;101612.38;5018572;28;45186;-75
2021/06/30 19:46:30;;;;;;;;;19.75;17.00;;;;;18.52;61.59;101605.50;5019063;28;45459;-75
2021/06/30 19:48:55;;;;;;;;;20.50;20.50;;;;;18.56;61.82;101615.03;5018723;28;45240;-75
2021/06/30 19:51:30;;;;;;;;;22.75;21.75;;;;;18.54;61.46;101622.25;5018790;28;46304;-75
2021/06/30 19:53:56;;;;;;;;;25.00;21.25;;;;;18.51;61.40;101622.41;5020147;28;45702;-75
2021/06/30 19:56:22;;;;;;;;;29.00;20.75;;;;;18.50;61.24;101631.31;5019855;28;45320;-75
2021/06/30 19:58:47;;;;;;;;;17.50;17.25;;;;;18.48;61.08;101635.84;5020592;28;45317;-75
2021/06/30 20:01:14;;;;;;;;;22.25;20.75;;;;;18.47;61.31;101631.50;5020184;28;45320;-75
2021/06/30 20:03:39;;;;;;;;;24.00;21.00;;;;;18.43;60.94;101636.09;5017025;28;45505;-75
2021/06/30 20:06:05;;;;;;;;;22.00;18.25;;;;;18.40;61.40;101641.59;5009149;28;45367;-75
2021/06/30 20:08:30;;;;;;;;;23.00;18.75;;;;;18.39;61.05;101648.72;5018859;28;45545;-75
2021/06/30 20:10:56;;;;;;;;;20.75;17.50;;;;;18.33;61.21;101641.03;5018781;28;45431;-75
2021/06/30 20:13:21;;;;;;;;;19.00;17.00;;;;;18.34;61.19;101650.75;5018564;28;45400;-75
2021/06/30 20:15:51;;;;;;;;;17.50;15.50;;;;;18.33;61.38;101655.22;5017466;28;45657;-75
2021/06/30 20:18:19;;;;;;;;;15.25;14.75;;;;;18.28;61.27;101656.38;4992766;28;45970;-75
2021/06/30 20:20:44;;;;;;;;;18.00;13.50;;;;;18.29;61.67;101660.78;4990350;28;47229;-75
2021/06/30 20:23:10;;;;;;;;;14.00;13.25;;;;;18.25;61.89;101662.72;5015754;28;45427;-75
2021/06/30 20:25:35;;;;;;;;;18.25;15.50;;;;;18.19;61.78;101661.25;4999841;28;45527;-75
2021/06/30 20:28:01;;;;;;;;;11.50;11.50;;;;;18.18;62.38;101664.81;5003367;28;45601;-75
2021/06/30 20:30:26;;;;;;;;;13.75;13.00;;;;;18.16;62.49;101663.16;5018366;28;45356;-75
2021/06/30 20:32:52;;;;;;;;;13.00;12.25;;;;;18.19;62.67;101669.25;5000326;28;45263;-75
2021/06/30 20:35:18;;;;;;;;;12.75;12.50;;;;;18.20;63.13;101667.41;5000289;28;45674;-75
2021/06/30 20:37:43;;;;;;;;;13.00;13.00;;;;;18.16;62.80;101672.00;5014405;28;45558;-75
2021/06/30 20:40:11;;;;;;;;;12.25;11.00;;;;;18.17;63.21;101680.88;5017654;28;45473;-75
2021/06/30 20:42:40;;;;;;;;;17.00;12.25;;;;;18.13;63.71;101676.59;5017916;28;45261;-77
2021/06/30 20:45:08;;;;;;;;;14.25;10.75;;;;;18.09;63.62;101675.91;5006063;28;45459;-77
2021/06/30 20:47:34;;;;;;;;;15.00;13.25;;;;;18.08;63.65;101680.38;5010813;28;45553;-77
2021/06/30 20:49:59;;;;;;;;;13.75;12.00;;;;;18.07;63.47;101680.47;5008913;28;46317;-77
2021/06/30 20:52:25;;;;;;;;;12.50;11.25;;;;;18.07;63.48;101683.13;5000545;28;45277;-77
2021/06/30 20:54:54;;;;;;;;;13.00;12.00;;;;;18.08;63.85;101688.34;5018212;28;45310;-76
2021/06/30 20:57:19;;;;;;;;;11.75;11.50;;;;;18.04;63.90;101685.94;5019907;28;45393;-76
2021/06/30 20:59:44;;;;;;;;;12.00;11.25;;;;;18.07;63.51;101681.34;5018641;28;46670;-76
2021/06/30 21:02:10;;;;;;;;;12.25;11.25;;;;;18.07;63.76;101678.66;5004225;28;45226;-76
2021/06/30 21:04:35;;;;;;;;;10.75;10.00;;;;;18.10;63.91;101680.28;5018971;28;45265;-78
2021/06/30 21:07:00;;;;;;;;;12.50;11.00;;;;;18.10;63.78;101680.28;5018889;28;45262;-78